Time;durP1;ratioP1;P1;durP2;ratioP2;P2;SDS_P1;SDS_P2;PMS_P1;PMS_P2;Temp;Humidity;BMP_temperature;BMP_pressure;BME280_temperature;BME280_humidity;BME280_pressure;Samples;Min_cycle;Max_cycle;Signal;HPM_P1;HPM_P2
2021/07/02 00:02:18;;;;;;;1999.90;999.90;;;15.10;99.90;;;;;;5054610;28;20227;-76
2021/07/02 00:04:43;;;;;;;1999.90;999.90;;;15.10;99.90;;;;;;5054389;28;20178;-76
2021/07/02 00:07:09;;;;;;;1999.90;999.90;;;15.10;99.90;;;;;;5054170;28;20221;-76
2021/07/02 00:09:35;;;;;;;1999.90;999.90;;;15.00;99.90;;;;;;5054264;28;20260;-76
2021/07/02 00:12:00;;;;;;;1999.90;999.90;;;15.00;99.90;;;;;;5052922;28;20206;-76
2021/07/02 00:14:26;;;;;;;1999.90;999.90;;;15.10;99.90;;;;;;5054340;28;20227;-76
2021/07/02 00:16:51;;;;;;;1999.90;999.90;;;15.10;99.90;;;;;;5054046;28;20186;-76
2021/07/02 00:19:18;;;;;;;1999.90;999.90;;;15.10;99.90;;;;;;5052790;28;20189;-76
2021/07/02 00:21:44;;;;;;;1999.90;999.90;;;15.00;99.90;;;;;;5054141;28;20166;-76
2021/07/02 00:24:10;;;;;;;1999.90;999.90;;;15.00;99.90;;;;;;5053845;28;20264;-76
2021/07/02 00:26:36;;;;;;;1999.90;999.90;;;14.90;99.90;;;;;;5053863;28;20300;-75
2021/07/02 00:29:03;;;;;;;1999.90;999.90;;;14.90;99.90;;;;;;5052707;28;20209;-76
2021/07/02 00:31:29;;;;;;;1999.90;999.90;;;14.90;99.90;;;;;;5053850;28;20229;-76
2021/07/02 00:33:55;;;;;;;1999.90;999.90;;;14.80;99.90;;;;;;5053690;28;20228;-76
2021/07/02 00:36:20;;;;;;;1999.90;999.90;;;14.80;99.90;;;;;;5053737;28;20545;-76
2021/07/02 00:38:46;;;;;;;1999.90;999.90;;;14.70;99.90;;;;;;5053769;28;20174;-76
2021/07/02 00:41:12;;;;;;;1999.90;999.90;;;14.70;99.90;;;;;;5052325;28;20178;-76
2021/07/02 00:43:49;;;;;;;1999.90;999.90;;;14.60;99.90;;;;;;5053757;28;20188;-76
2021/07/02 00:46:15;;;;;;;1999.90;999.90;;;14.60;99.90;;;;;;5053549;28;20691;-76
2021/07/02 00:48:41;;;;;;;1999.90;999.90;;;14.50;99.90;;;;;;5052327;28;20178;-76
2021/07/02 00:51:06;;;;;;;1999.90;999.90;;;14.50;99.90;;;;;;5053493;28;20185;-75
2021/07/02 00:53:32;;;;;;;1999.90;999.90;;;14.50;99.90;;;;;;5052180;28;20193;-76
2021/07/02 00:56:00;;;;;;;1999.90;999.90;;;14.40;99.90;;;;;;5052644;28;20640;-75
2021/07/02 00:58:31;;;;;;;1999.90;999.90;;;14.40;99.90;;;;;;5052828;28;20648;-76
2021/07/02 01:00:56;;;;;;;1999.90;999.90;;;14.40;99.90;;;;;;5053350;28;20183;-76
2021/07/02 01:03:22;;;;;;;1999.90;999.90;;;14.30;99.90;;;;;;5053359;28;20264;-76
2021/07/02 01:05:48;;;;;;;1999.90;999.90;;;14.30;99.90;;;;;;5053250;28;20181;-76
2021/07/02 01:08:14;;;;;;;1999.90;999.90;;;14.20;99.90;;;;;;5053286;28;20174;-75
2021/07/02 01:10:42;;;;;;;1999.90;999.90;;;14.20;99.90;;;;;;5053235;28;20672;-76
2021/07/02 01:13:08;;;;;;;1999.90;999.90;;;14.20;99.90;;;;;;5052669;28;20232;-76
2021/07/02 01:15:33;;;;;;;1999.90;999.90;;;14.20;99.90;;;;;;5053483;28;20602;-76
2021/07/02 01:17:59;;;;;;;1999.90;999.90;;;14.10;99.90;;;;;;5052986;28;20572;-76
2021/07/02 01:20:25;;;;;;;1999.90;999.90;;;14.10;99.90;;;;;;5053060;28;20173;-75
2021/07/02 01:22:50;;;;;;;1999.90;999.90;;;14.10;99.90;;;;;;5053080;28;20203;-76
2021/07/02 01:25:16;;;;;;;1999.90;999.90;;;14.10;99.90;;;;;;5052998;28;20253;-75
2021/07/02 01:27:42;;;;;;;1999.90;999.90;;;14.10;99.90;;;;;;5052853;28;20240;-76
2021/07/02 01:30:09;;;;;;;1999.90;999.90;;;14.00;99.90;;;;;;5053091;28;20186;-76
2021/07/02 01:32:36;;;;;;;1999.90;999.90;;;14.10;99.90;;;;;;5051647;28;20212;-76
2021/07/02 01:35:02;;;;;;;1999.90;999.90;;;14.00;99.90;;;;;;5053126;28;20168;-76
2021/07/02 01:37:27;;;;;;;1999.90;999.90;;;14.00;99.90;;;;;;5052887;28;20258;-76
2021/07/02 01:39:53;;;;;;;1999.90;999.90;;;14.10;99.90;;;;;;5052917;28;20188;-75
2021/07/02 01:42:18;;;;;;;1999.90;999.90;;;14.10;99.90;;;;;;5052810;28;20212;-75
2021/07/02 01:44:44;;;;;;;1999.90;999.90;;;14.00;99.90;;;;;;5052922;28;20260;-75
2021/07/02 01:47:10;;;;;;;1999.90;999.90;;;14.00;99.90;;;;;;5052774;28;20247;-75
2021/07/02 01:49:35;;;;;;;1999.90;999.90;;;14.00;99.90;;;;;;5052704;28;20184;-76
2021/07/02 01:52:01;;;;;;;1999.90;999.90;;;13.90;99.90;;;;;;5052476;28;20291;-75
2021/07/02 01:54:27;;;;;;;1999.90;999.90;;;13.90;99.90;;;;;;5051436;28;20181;-76
2021/07/02 01:56:53;;;;;;;1999.90;999.90;;;13.80;99.90;;;;;;5052917;28;20195;-76
2021/07/02 01:59:19;;;;;;;1999.90;999.90;;;13.80;99.90;;;;;;5052711;28;20238;-76
2021/07/02 02:01:47;;;;;;;1999.90;999.90;;;13.80;99.90;;;;;;5051542;28;20209;-75
2021/07/02 02:04:12;;;;;;;1999.90;999.90;;;13.80;99.90;;;;;;5052781;28;20178;-75
2021/07/02 02:06:38;;;;;;;1999.90;999.90;;;13.90;99.90;;;;;;5052553;28;20186;-76
2021/07/02 02:09:05;;;;;;;1999.90;999.90;;;14.00;99.90;;;;;;5051402;28;20178;-76
2021/07/02 02:11:31;;;;;;;1999.90;999.90;;;14.00;99.90;;;;;;5055505;28;20207;-76
2021/07/02 02:13:57;;;;;;;1999.90;999.90;;;14.00;99.90;;;;;;5056542;28;20176;-76
2021/07/02 02:16:23;;;;;;;1999.90;999.90;;;14.00;99.90;;;;;;5056365;28;20186;-76
2021/07/02 02:18:49;;;;;;;1999.90;999.90;;;13.90;99.90;;;;;;5056325;28;20174;-76
2021/07/02 02:21:15;;;;;;;1999.90;999.90;;;13.90;99.90;;;;;;5056365;28;20181;-76
2021/07/02 02:23:40;;;;;;;1999.90;999.90;;;13.80;99.90;;;;;;5056474;28;20173;-76
2021/07/02 02:26:06;;;;;;;1999.90;999.90;;;13.80;99.90;;;;;;5052412;28;20216;-75
2021/07/02 02:28:32;;;;;;;1999.90;999.90;;;13.80;99.90;;;;;;5052937;28;20182;-76
2021/07/02 02:30:57;;;;;;;1999.90;999.90;;;13.80;99.90;;;;;;5054154;28;20184;-75
2021/07/02 02:33:23;;;;;;;1999.90;999.90;;;13.80;99.90;;;;;;5052680;28;20197;-76
2021/07/02 02:35:48;;;;;;;1999.90;999.90;;;13.80;99.90;;;;;;5054029;28;20191;-76
2021/07/02 02:38:14;;;;;;;1999.90;999.90;;;13.80;99.90;;;;;;5051405;28;20185;-75
2021/07/02 02:40:40;;;;;;;1999.90;999.90;;;13.80;99.90;;;;;;5052153;28;20215;-76
2021/07/02 02:43:05;;;;;;;1999.90;999.90;;;13.80;99.90;;;;;;5053116;28;20193;-76
2021/07/02 02:45:31;;;;;;;1999.90;999.90;;;13.70;99.90;;;;;;5053642;28;20180;-76
2021/07/02 02:47:57;;;;;;;1999.90;999.90;;;13.70;99.90;;;;;;5053107;28;20208;-76
2021/07/02 02:50:22;;;;;;;1999.90;999.90;;;13.60;99.90;;;;;;5053279;28;20174;-76
2021/07/02 02:52:48;;;;;;;1999.90;999.90;;;13.70;99.90;;;;;;5052937;28;20204;-76
2021/07/02 02:55:14;;;;;;;1999.90;999.90;;;13.60;99.90;;;;;;5053123;28;20641;-75
2021/07/02 02:57:39;;;;;;;1999.90;999.90;;;13.70;99.90;;;;;;5052903;28;20242;-76
2021/07/02 03:00:08;;;;;;;1999.90;999.90;;;13.70;99.90;;;;;;5053080;28;20200;-76
2021/07/02 03:02:33;;;;;;;1999.90;999.90;;;13.70;99.90;;;;;;5052881;28;20185;-76
2021/07/02 03:04:59;;;;;;;1999.90;999.90;;;13.70;99.90;;;;;;5052964;28;20537;-76
2021/07/02 03:07:25;;;;;;;1999.90;999.90;;;13.70;99.90;;;;;;5052544;28;20587;-76
2021/07/02 03:09:50;;;;;;;1999.90;999.90;;;13.70;99.90;;;;;;5050715;28;20201;-76
2021/07/02 03:12:16;;;;;;;1999.90;999.90;;;13.60;99.90;;;;;;5052846;28;20756;-76
2021/07/02 03:14:42;;;;;;;1999.90;999.90;;;13.70;99.90;;;;;;5054113;28;20173;-76
2021/07/02 03:17:07;;;;;;;1999.90;999.90;;;13.50;99.90;;;;;;5053957;28;20205;-75
2021/07/02 03:19:33;;;;;;;1999.90;999.90;;;13.60;99.90;;;;;;5054027;28;20713;-76
2021/07/02 03:21:59;;;;;;;1999.90;999.90;;;13.60;99.90;;;;;;5052920;28;20199;-76
2021/07/02 03:24:24;;;;;;;1999.90;999.90;;;13.60;99.90;;;;;;5053578;28;20193;-76
2021/07/02 03:26:50;;;;;;;1999.90;999.90;;;13.60;99.90;;;;;;5052672;28;20216;-76
2021/07/02 03:29:16;;;;;;;1999.90;999.90;;;13.60;99.90;;;;;;5053058;28;20653;-76
2021/07/02 03:31:41;;;;;;;1999.90;999.90;;;13.60;99.90;;;;;;5051488;28;20241;-75
2021/07/02 03:34:07;;;;;;;1999.90;999.90;;;13.60;99.90;;;;;;5052867;28;20177;-75
2021/07/02 03:36:33;;;;;;;1999.90;999.90;;;13.60;99.90;;;;;;5053382;28;20280;-76
2021/07/02 03:38:59;;;;;;;1999.90;999.90;;;13.60;99.90;;;;;;5052989;28;20178;-76
2021/07/02 03:41:25;;;;;;;1999.90;999.90;;;13.60;99.90;;;;;;5053579;28;20181;-75
2021/07/02 03:43:51;;;;;;;1999.90;999.90;;;13.60;99.90;;;;;;5052092;28;20186;-75
2021/07/02 03:46:16;;;;;;;1999.90;999.90;;;13.60;99.90;;;;;;5052497;28;20228;-75
2021/07/02 03:48:42;;;;;;;1999.90;999.90;;;13.60;99.90;;;;;;5053089;28;20590;-76
2021/07/02 03:51:08;;;;;;;1999.90;999.90;;;13.70;99.90;;;;;;5051870;28;20179;-76
2021/07/02 03:53:33;;;;;;;1999.90;999.90;;;13.70;99.90;;;;;;5052531;28;20204;-76
2021/07/02 03:55:59;;;;;;;1999.90;999.90;;;13.70;99.90;;;;;;5051235;28;20992;-76
2021/07/02 03:58:24;;;;;;;1999.90;999.90;;;13.70;99.90;;;;;;5052744;28;20181;-76
2021/07/02 04:00:50;;;;;;;1999.90;999.90;;;13.70;99.90;;;;;;5050168;28;20169;-75
2021/07/02 04:03:16;;;;;;;1999.90;999.90;;;13.70;99.90;;;;;;5052583;28;20692;-76
2021/07/02 04:05:44;;;;;;;1999.90;999.90;;;13.70;99.90;;;;;;5051683;28;20177;-76
2021/07/02 04:08:11;;;;;;;1999.90;999.90;;;13.70;99.90;;;;;;5051026;28;20277;-75
2021/07/02 04:10:37;;;;;;;1999.90;999.90;;;13.70;99.90;;;;;;5088313;22;20746;-75
2021/07/02 04:13:03;;;;;;;1999.90;999.90;;;13.80;99.90;;;;;;5110296;28;20245;-74
2021/07/02 04:15:28;;;;;;;1999.90;999.90;;;13.70;99.90;;;;;;5113400;28;20220;-73
2021/07/02 04:17:54;;;;;;;1999.90;999.90;;;13.70;99.90;;;;;;5107776;28;20179;-74
2021/07/02 04:20:20;;;;;;;1999.90;999.90;;;13.70;99.90;;;;;;5099213;28;20246;-73
2021/07/02 04:22:45;;;;;;;1999.90;999.90;;;13.80;99.90;;;;;;5075742;28;20179;-74
2021/07/02 04:25:12;;;;;;;1999.90;999.90;;;13.70;99.90;;;;;;5093978;28;20168;-74
2021/07/02 04:27:39;;;;;;;1999.90;999.90;;;13.70;99.90;;;;;;5094101;28;20176;-74
2021/07/02 04:30:05;;;;;;;1999.90;999.90;;;13.80;99.90;;;;;;5093770;28;20198;-73
2021/07/02 04:32:31;;;;;;;1999.90;999.90;;;13.80;99.90;;;;;;5075596;28;20183;-73
2021/07/02 04:34:57;;;;;;;1999.90;999.90;;;13.80;99.90;;;;;;5093763;28;20168;-73
2021/07/02 04:37:22;;;;;;;1999.90;999.90;;;13.80;99.90;;;;;;5093879;28;20179;-74
2021/07/02 04:39:48;;;;;;;1999.90;999.90;;;13.80;99.90;;;;;;5093136;28;20169;-75
2021/07/02 04:42:14;;;;;;;1999.90;999.90;;;13.80;99.90;;;;;;5075483;28;20548;-77
2021/07/02 04:44:40;;;;;;;1999.90;999.90;;;13.80;99.90;;;;;;5093306;28;20172;-75
2021/07/02 04:47:05;;;;;;;1999.90;999.90;;;13.90;99.90;;;;;;5085658;28;20172;-75
2021/07/02 04:49:33;;;;;;;1999.90;999.90;;;14.00;99.90;;;;;;5093511;28;20699;-75
2021/07/02 04:51:58;;;;;;;1999.90;999.90;;;14.10;99.90;;;;;;5093843;28;20669;-75
2021/07/02 04:54:24;;;;;;;1999.90;999.90;;;14.20;99.90;;;;;;5093311;28;20169;-75
2021/07/02 04:56:50;;;;;;;1999.90;999.90;;;14.10;99.90;;;;;;5076294;28;20256;-81
2021/07/02 04:59:19;;;;;;;1999.90;999.90;;;14.10;99.90;;;;;;5094496;28;20243;-82
2021/07/02 05:01:46;;;;;;;1999.90;999.90;;;14.20;99.90;;;;;;5094749;28;20663;-83
2021/07/02 05:04:12;;;;;;;1999.90;999.90;;;14.20;99.90;;;;;;5096789;28;20172;-81
2021/07/02 05:06:38;;;;;;;1999.90;999.90;;;14.40;99.90;;;;;;5096743;28;20239;-82
2021/07/02 05:09:05;;;;;;;1999.90;999.90;;;14.50;99.90;;;;;;5078016;28;20313;-81
2021/07/02 05:11:33;;;;;;;1999.90;999.90;;;14.60;99.90;;;;;;5096344;28;20732;-82
2021/07/02 05:13:59;;;;;;;1999.90;999.90;;;14.70;99.90;;;;;;5096405;28;20738;-82
2021/07/02 05:16:24;;;;;;;1999.90;999.90;;;14.80;99.90;;;;;;5078500;28;20203;-83
2021/07/02 05:18:50;;;;;;;1999.90;999.90;;;14.90;99.90;;;;;;5078151;28;20253;-83
2021/07/02 05:21:15;;;;;;;1999.90;999.90;;;15.00;99.90;;;;;;5096274;28;20196;-82
2021/07/02 05:23:41;;;;;;;1999.90;999.90;;;15.10;99.90;;;;;;5096390;28;20187;-82
2021/07/02 05:26:08;;;;;;;1999.90;999.90;;;15.10;99.90;;;;;;5096702;28;20513;-82
2021/07/02 05:28:35;;;;;;;1999.90;999.90;;;15.20;99.90;;;;;;5077890;28;20608;-82
2021/07/02 05:31:01;;;;;;;1999.90;999.90;;;15.20;99.90;;;;;;5096587;28;20184;-82
2021/07/02 05:33:27;;;;;;;1999.90;999.90;;;15.30;99.90;;;;;;5077926;28;20202;-82
2021/07/02 05:35:52;;;;;;;1999.90;999.90;;;15.30;99.90;;;;;;5078326;28;20627;-83
2021/07/02 05:38:18;;;;;;;1999.90;999.90;;;15.40;99.90;;;;;;5096400;28;20282;-83
2021/07/02 05:40:44;;;;;;;1999.90;999.90;;;15.40;99.90;;;;;;5096128;28;20283;-82
2021/07/02 05:43:09;;;;;;;1999.90;999.90;;;15.50;99.90;;;;;;5078624;28;20203;-82
2021/07/02 05:45:35;;;;;;;1999.90;999.90;;;15.60;99.90;;;;;;5080223;28;20184;-82
2021/07/02 05:48:02;;;;;;;1999.90;999.90;;;15.70;99.90;;;;;;5099988;28;20187;-82
2021/07/02 05:50:29;;;;;;;1999.90;999.90;;;15.80;99.90;;;;;;5099916;28;20198;-82
2021/07/02 05:52:55;;;;;;;1999.90;999.90;;;16.00;99.90;;;;;;5082351;28;20184;-82
2021/07/02 05:55:24;;;;;;;1999.90;999.90;;;16.10;99.90;;;;;;5100519;28;20175;-82
2021/07/02 05:57:50;;;;;;;1999.90;999.90;;;16.20;99.90;;;;;;5100383;28;20250;-83
2021/07/02 06:00:17;;;;;;;1999.90;999.90;;;16.30;99.90;;;;;;5099663;28;20204;-83
2021/07/02 06:02:43;;;;;;;1999.90;999.90;;;16.40;99.90;;;;;;5082145;28;20176;-83
2021/07/02 06:05:08;;;;;;;1999.90;999.90;;;16.40;99.90;;;;;;5082206;28;20233;-83
2021/07/02 06:07:42;;;;;;;1999.90;999.90;;;16.50;99.90;;;;;;5101079;28;20185;-83
2021/07/02 06:10:08;;;;;;;1999.90;999.90;;;16.50;99.90;;;;;;5081867;28;20581;-82
2021/07/02 06:12:34;;;;;;;1999.90;999.90;;;16.60;99.90;;;;;;5082791;28;20193;-82
2021/07/02 06:14:59;;;;;;;1999.90;999.90;;;16.80;99.90;;;;;;5100507;28;20174;-83
2021/07/02 06:17:25;;;;;;;1999.90;999.90;;;16.90;99.90;;;;;;5082522;28;20534;-83
2021/07/02 06:19:51;;;;;;;1999.90;999.90;;;16.90;99.90;;;;;;5091462;28;20212;-83
2021/07/02 06:22:16;;;;;;;1999.90;999.90;;;17.00;99.90;;;;;;5082228;28;20175;-82
2021/07/02 06:24:42;;;;;;;1999.90;999.90;;;17.10;99.90;;;;;;5100636;28;20210;-82
2021/07/02 06:27:08;;;;;;;1999.90;999.90;;;17.20;99.90;;;;;;5099816;28;20257;-83
2021/07/02 06:29:33;;;;;;;1999.90;999.90;;;17.30;99.90;;;;;;5099905;28;20247;-83
2021/07/02 06:31:59;;;;;;;1999.90;999.90;;;17.30;99.90;;;;;;5081616;28;20759;-83
2021/07/02 06:34:25;;;;;;;1999.90;999.90;;;17.40;99.90;;;;;;5100271;28;20273;-82
2021/07/02 06:36:50;;;;;;;1999.90;999.90;;;17.40;99.90;;;;;;5081791;28;20183;-83
2021/07/02 06:39:16;;;;;;;1999.90;999.90;;;17.40;99.90;;;;;;5099323;28;20167;-82
2021/07/02 06:41:41;;;;;;;1999.90;999.90;;;17.20;99.90;;;;;;5080454;28;20285;-83
2021/07/02 06:44:07;;;;;;;1999.90;999.90;;;17.00;99.90;;;;;;5081480;28;20207;-83
2021/07/02 06:46:33;;;;;;;1999.90;999.90;;;17.10;99.90;;;;;;5100412;28;20248;-82
2021/07/02 06:49:00;;;;;;;1999.90;999.90;;;17.20;99.90;;;;;;5099521;28;20559;-83
2021/07/02 06:51:26;;;;;;;1999.90;999.90;;;17.30;99.90;;;;;;5099838;28;20719;-83
2021/07/02 06:53:52;;;;;;;1999.90;999.90;;;17.50;99.90;;;;;;5099848;28;20200;-82
2021/07/02 06:56:18;;;;;;;1999.90;999.90;;;17.60;99.90;;;;;;5098721;28;20199;-83
2021/07/02 06:58:44;;;;;;;1999.90;999.90;;;17.70;99.90;;;;;;5080908;28;20214;-83
2021/07/02 07:01:09;;;;;;;1999.90;999.90;;;17.70;99.90;;;;;;5099284;28;20229;-83
2021/07/02 07:03:36;;;;;;;1999.90;999.90;;;17.80;99.90;;;;;;5099486;28;20180;-83
2021/07/02 07:06:02;;;;;;;1999.90;999.90;;;17.90;99.90;;;;;;5093920;28;20182;-81
2021/07/02 07:08:28;;;;;;;1999.90;999.90;;;17.90;99.90;;;;;;5102083;28;20179;-82
2021/07/02 07:10:53;;;;;;;1999.90;999.90;;;18.00;99.90;;;;;;5099160;28;20280;-81
2021/07/02 07:13:19;;;;;;;1999.90;999.90;;;18.10;99.90;;;;;;5099590;28;20272;-81
2021/07/02 07:15:45;;;;;;;1999.90;999.90;;;17.70;99.90;;;;;;5081329;28;20172;-81
2021/07/02 07:18:10;;;;;;;1999.90;999.90;;;17.60;99.90;;;;;;5099703;28;20164;-80
2021/07/02 07:20:36;;;;;;;1999.90;999.90;;;17.80;99.90;;;;;;5081163;28;20195;-81
2021/07/02 07:23:03;;;;;;;1999.90;999.90;;;17.80;99.90;;;;;;5081766;28;20174;-81
2021/07/02 07:25:28;;;;;;;1999.90;999.90;;;17.60;99.90;;;;;;5096576;28;20241;-80
2021/07/02 07:27:54;;;;;;;1999.90;999.90;;;17.80;99.90;;;;;;5099300;28;20247;-80
2021/07/02 07:30:20;;;;;;;1999.90;999.90;;;18.00;99.90;;;;;;5086675;28;20190;-81
2021/07/02 07:32:48;;;;;;;1999.90;999.90;;;18.30;99.90;;;;;;5100426;28;20688;-81
2021/07/02 07:38:12;;;;;;;1999.90;999.90;;;18.80;99.90;;;;;;5044013;28;20177;-80
2021/07/02 07:40:38;;;;;;;1999.90;999.90;;;18.90;99.90;;;;;;5081327;28;20199;-81
2021/07/02 07:43:03;;;;;;;1999.90;999.90;;;19.00;99.90;;;;;;5099544;28;20181;-80
2021/07/02 07:45:29;;;;;;;1999.90;999.90;;;19.10;99.90;;;;;;5099450;28;20176;-82
2021/07/02 07:47:55;;;;;;;1999.90;999.90;;;19.20;99.90;;;;;;5099475;28;20174;-80
2021/07/02 07:50:26;;;;;;;1999.90;999.90;;;18.90;99.90;;;;;;5099065;28;20223;-80
2021/07/02 07:52:56;;;;;;;1999.90;999.90;;;19.00;99.90;;;;;;5100718;28;20180;-81
2021/07/02 07:55:22;;;;;;;1999.90;999.90;;;18.50;99.90;;;;;;5100364;28;20177;-82
2021/07/02 07:57:47;;;;;;;1999.90;999.90;;;18.50;99.90;;;;;;5081643;28;20168;-82
2021/07/02 08:00:14;;;;;;;1999.90;999.90;;;18.70;99.90;;;;;;5099519;28;20249;-80
2021/07/02 08:02:39;;;;;;;1999.90;999.90;;;18.90;99.90;;;;;;5099808;28;20180;-80
2021/07/02 08:05:05;;;;;;;1999.90;999.90;;;19.00;99.90;;;;;;5099296;28;20576;-80
2021/07/02 08:07:35;;;;;;;1999.90;999.90;;;19.10;99.90;;;;;;5101077;28;20203;-80
2021/07/02 08:10:02;;;;;;;1999.90;999.90;;;19.10;99.90;;;;;;5098859;28;20207;-80
2021/07/02 08:12:28;;;;;;;1999.90;999.90;;;18.90;99.90;;;;;;5099293;28;20585;-80
2021/07/02 08:14:54;;;;;;;1999.90;999.90;;;18.90;99.90;;;;;;5099186;28;20167;-81
2021/07/02 08:17:19;;;;;;;1999.90;999.90;;;19.10;99.90;;;;;;5099618;28;20198;-80
2021/07/02 08:19:45;;;;;;;1999.90;999.90;;;19.00;99.90;;;;;;5080591;28;20175;-82
2021/07/02 08:22:11;;;;;;;1999.90;999.90;;;19.10;99.90;;;;;;5081187;28;20240;-82
2021/07/02 08:24:36;;;;;;;1999.90;999.90;;;19.30;99.90;;;;;;5081017;28;20179;-80
2021/07/02 08:27:05;;;;;;;1999.90;999.90;;;19.40;99.90;;;;;;5099290;28;20182;-81
2021/07/02 08:29:31;;;;;;;1999.90;999.90;;;19.40;99.90;;;;;;5099219;28;20175;-80
2021/07/02 08:31:56;;;;;;;1999.90;999.90;;;19.50;99.90;;;;;;5099045;28;20674;-81
2021/07/02 08:34:22;;;;;;;1999.90;999.90;;;19.60;99.90;;;;;;5099032;28;20163;-82
2021/07/02 08:36:48;;;;;;;1999.90;999.90;;;19.80;99.90;;;;;;5099410;28;20198;-82
2021/07/02 08:39:14;;;;;;;1999.90;999.90;;;20.10;99.90;;;;;;5084277;28;20168;-81
2021/07/02 08:41:40;;;;;;;1999.90;999.90;;;20.00;99.90;;;;;;5080385;28;20211;-80
2021/07/02 08:44:06;;;;;;;1999.90;999.90;;;20.20;99.90;;;;;;5080311;28;20172;-81
2021/07/02 08:46:34;;;;;;;1999.90;999.90;;;20.30;99.90;;;;;;5090780;28;20223;-81
2021/07/02 08:49:02;;;;;;;1999.90;999.90;;;20.40;99.90;;;;;;5091856;28;20240;-80
2021/07/02 08:51:28;;;;;;;1999.90;999.90;;;20.40;99.90;;;;;;5098075;28;20203;-80
2021/07/02 08:53:54;;;;;;;1999.90;999.90;;;20.40;99.90;;;;;;5098699;28;20195;-80
2021/07/02 08:56:20;;;;;;;1999.90;999.90;;;20.60;99.90;;;;;;5098306;28;20172;-81
2021/07/02 08:58:46;;;;;;;1999.90;999.90;;;20.50;99.90;;;;;;5080479;28;20218;-81
2021/07/02 09:01:42;;;;;;;1999.90;999.90;;;20.50;99.90;;;;;;5097625;28;20607;-81
2021/07/02 09:04:17;;;;;;;1999.90;999.90;;;20.60;99.90;;;;;;5097921;28;20196;-80
2021/07/02 09:06:43;;;;;;;1999.90;999.90;;;20.40;99.90;;;;;;5097339;28;20261;-80
2021/07/02 09:09:09;;;;;;;1999.90;999.90;;;20.40;99.90;;;;;;5098850;28;20164;-80
2021/07/02 09:11:37;;;;;;;1999.90;999.90;;;20.40;99.90;;;;;;5097992;28;20682;-80
2021/07/02 09:14:09;;;;;;;1999.90;999.90;;;20.50;99.90;;;;;;5079936;28;20289;-80
2021/07/02 09:16:37;;;;;;;1999.90;999.90;;;20.60;99.90;;;;;;5097822;28;20642;-80
2021/07/02 09:19:22;;;;;;;1999.90;999.90;;;20.50;99.90;;;;;;5079660;28;20176;-81
2021/07/02 09:21:48;;;;;;;1999.90;999.90;;;20.90;99.90;;;;;;5097278;28;20241;-80
2021/07/02 09:24:39;;;;;;;1999.90;999.90;;;20.80;99.90;;;;;;5097348;28;20228;-81
2021/07/02 09:27:26;;;;;;;1999.90;999.90;;;21.10;99.90;;;;;;5097868;28;20169;-80
2021/07/02 09:30:06;;;;;;;1999.90;999.90;;;21.10;99.90;;;;;;5097968;28;20195;-80
2021/07/02 09:32:33;;;;;;;1999.90;999.90;;;21.20;99.90;;;;;;5080061;28;20185;-80
2021/07/02 09:35:01;;;;;;;1999.90;999.90;;;21.30;99.90;;;;;;5079855;28;20228;-80
2021/07/02 09:37:53;;;;;;;1999.90;999.90;;;21.40;99.90;;;;;;5097843;28;20229;-82
2021/07/02 09:40:23;;;;;;;1999.90;999.90;;;21.40;99.90;;;;;;5078979;28;20192;-79
2021/07/02 09:43:11;;;;;;;1999.90;999.90;;;21.30;99.90;;;;;;5097186;28;20180;-79
2021/07/02 09:45:46;;;;;;;1999.90;999.90;;;21.40;99.90;;;;;;5097647;28;20172;-80
2021/07/02 09:48:14;;;;;;;1999.90;999.90;;;21.40;99.90;;;;;;5066853;28;20263;-81
2021/07/02 09:50:54;;;;;;;1999.90;999.90;;;21.30;99.90;;;;;;5079690;28;20235;-81
2021/07/02 09:53:25;;;;;;;1999.90;999.90;;;21.20;99.90;;;;;;5097349;28;20265;-81
2021/07/02 09:55:56;;;;;;;1999.90;999.90;;;21.60;99.90;;;;;;5096037;28;20161;-81
2021/07/02 09:58:26;;;;;;;1999.90;999.90;;;21.50;99.90;;;;;;5079686;28;20194;-81
2021/07/02 10:00:56;;;;;;;1999.90;999.90;;;21.50;99.90;;;;;;5097364;28;20229;-78
2021/07/02 10:03:24;;;;;;;1999.90;999.90;;;21.50;99.90;;;;;;5096691;28;20181;-79
2021/07/02 10:05:56;;;;;;;1999.90;999.90;;;21.70;99.90;;;;;;5096031;28;20232;-80
2021/07/02 10:08:23;;;;;;;1999.90;999.90;;;;;;;;;;5078884;28;20548;-79
2021/07/02 10:10:50;;;;;;;1999.90;999.90;;;22.10;99.90;;;;;;5123945;22;21107;-73
2021/07/02 10:13:18;;;;;;;1999.90;999.90;;;22.30;99.90;;;;;;5112841;28;20641;-74
2021/07/02 10:15:44;;;;;;;1999.90;999.90;;;22.10;99.90;;;;;;5094881;28;20171;-74
2021/07/02 10:18:15;;;;;;;1999.90;999.90;;;21.80;99.90;;;;;;5113123;28;20640;-74
2021/07/02 10:20:42;;;;;;;1999.90;999.90;;;21.80;99.90;;;;;;5111140;28;20673;-74
2021/07/02 10:23:11;;;;;;;1999.90;999.90;;;22.00;99.90;;;;;;5092622;28;20177;-74
2021/07/02 10:25:39;;;;;;;1999.90;999.90;;;22.30;99.90;;;;;;5093064;28;20169;-74
2021/07/02 10:28:05;;;;;;;1999.90;999.90;;;22.30;99.90;;;;;;5092398;28;20537;-73
2021/07/02 10:30:31;;;;;;;1999.90;999.90;;;22.50;99.90;;;;;;5092792;28;20647;-74
2021/07/02 10:32:59;;;;;;;1999.90;999.90;;;22.80;99.90;;;;;;5096012;28;20203;-74
2021/07/02 10:35:29;;;;;;;1999.90;999.90;;;22.70;99.90;;;;;;5096414;28;20175;-70
2021/07/02 10:37:59;;;;;;;1999.90;999.90;;;22.50;99.90;;;;;;5096616;28;20168;-74
2021/07/02 10:40:38;;;;;;;1999.90;999.90;;;22.70;99.90;;;;;;5095931;28;20251;-74
2021/07/02 10:43:08;;;;;;;1999.90;999.90;;;22.70;99.90;;;;;;5078719;28;20647;-74
2021/07/02 10:45:34;;;;;;;1999.90;999.90;;;22.60;99.90;;;;;;5096380;28;20164;-74
2021/07/02 10:48:00;;;;;;;1999.90;999.90;;;22.70;99.90;;;;;;5095910;28;20172;-74
2021/07/02 10:50:40;;;;;;;1999.90;999.90;;;22.90;99.90;;;;;;5077990;28;20225;-74
2021/07/02 10:53:25;;;;;;;1999.90;999.90;;;23.10;99.90;;;;;;5096100;28;20279;-74
2021/07/02 10:55:51;;;;;;;1999.90;999.90;;;23.20;99.90;;;;;;5077748;28;20172;-74
2021/07/02 10:58:20;;;;;;;1999.90;999.90;;;23.40;99.90;;;;;;5096205;28;20173;-74
2021/07/02 11:01:09;;;;;;;1999.90;999.90;;;23.20;99.90;;;;;;5096289;28;20315;-74
2021/07/02 11:03:34;;;;;;;1999.90;999.90;;;23.50;99.90;;;;;;5095120;28;20685;-74
2021/07/02 11:06:37;;;;;;;1999.90;999.90;;;23.60;99.90;;;;;;5095178;28;20187;-73
2021/07/02 11:09:03;;;;;;;1999.90;999.90;;;23.60;99.90;;;;;;5095408;28;20195;-72
2021/07/02 11:12:08;;;;;;;1999.90;999.90;;;23.70;99.90;;;;;;5077025;28;20268;-73
2021/07/02 11:14:54;;;;;;;1999.90;999.90;;;23.90;99.90;;;;;;5070354;28;20220;-75
2021/07/02 11:17:34;;;;;;;1999.90;999.90;;;23.80;99.90;;;;;;5095532;28;20176;-73
2021/07/02 11:20:09;;;;;;;1999.90;999.90;;;23.80;99.90;;;;;;5095348;28;20539;-73
2021/07/02 11:22:39;;;;;;;1999.90;999.90;;;24.00;99.90;;;;;;5095562;28;20212;-73
2021/07/02 11:25:14;;;;;;;1999.90;999.90;;;24.20;99.90;;;;;;5077163;28;20176;-73
2021/07/02 11:27:47;;;;;;;1999.90;999.90;;;24.40;99.90;;;;;;5095392;28;20250;-74
2021/07/02 11:30:36;;;;;;;1999.90;999.90;;;23.90;99.90;;;;;;5095503;28;20165;-74
2021/07/02 11:33:04;;;;;;;1999.90;999.90;;;24.00;99.90;;;;;;5077049;28;20196;-74
2021/07/02 11:35:53;;;;;;;1999.90;999.90;;;24.10;99.90;;;;;;5095144;28;20176;-74
2021/07/02 11:38:23;;;;;;;1999.90;999.90;;;23.90;99.90;;;;;;5079391;28;20215;-74
2021/07/02 11:40:54;;;;;;;1999.90;999.90;;;23.90;99.90;;;;;;5094942;28;20207;-74
2021/07/02 11:43:23;;;;;;;1999.90;999.90;;;23.90;99.90;;;;;;5094464;28;20180;-73
2021/07/02 11:45:52;;;;;;;1999.90;999.90;;;24.10;99.90;;;;;;5094888;28;20179;-75
2021/07/02 11:48:23;;;;;;;1999.90;999.90;;;24.40;99.90;;;;;;5094905;28;20204;-74
2021/07/02 11:51:07;;;;;;;1999.90;999.90;;;24.30;99.90;;;;;;5094769;28;20594;-75
2021/07/02 11:53:44;;;;;;;1999.90;999.90;;;24.40;99.90;;;;;;5094887;28;20240;-74
2021/07/02 11:56:16;;;;;;;1999.90;999.90;;;24.70;99.90;;;;;;5094800;28;20527;-73
2021/07/02 11:58:59;;;;;;;1999.90;999.90;;;24.70;99.90;;;;;;5094800;28;20168;-74
2021/07/02 12:01:40;;;;;;;1999.90;999.90;;;24.20;99.90;;;;;;5094611;28;20184;-73
2021/07/02 12:04:07;;;;;;;1999.90;999.90;;;24.10;99.90;;;;;;5094449;28;20183;-75
2021/07/02 12:06:36;;;;;;;1999.90;999.90;;;24.10;99.90;;;;;;5094519;28;20196;-71